Time;durP1;ratioP1;P1;durP2;ratioP2;P2;SDS_P1;SDS_P2;PMS_P1;PMS_P2;Temp;Humidity;BMP_temperature;BMP_pressure;BME280_temperature;BME280_humidity;BME280_pressure;Samples;Min_cycle;Max_cycle;Signal;HPM_P1;HPM_P2
2020/12/12 00:01:20;;;;;;;3.90;3.00;;;;;;;;;;4977431;28;20022;-82
2020/12/12 00:03:45;;;;;;;3.33;2.47;;;5.10;97.10;;;;;;5010345;28;20064;-84
2020/12/12 00:06:11;;;;;;;4.70;2.67;;;5.40;93.50;;;;;;4995510;28;20084;-83
2020/12/12 00:08:37;;;;;;;3.58;2.63;;;5.30;93.30;;;;;;4993933;28;20030;-83
2020/12/12 00:11:02;;;;;;;3.28;2.40;;;5.20;93.30;;;;;;4961981;28;20041;-84
2020/12/12 00:13:28;;;;;;;3.28;2.40;;;5.20;99.90;;;;;;4961722;28;20092;-82
2020/12/12 00:15:54;;;;;;;2.78;2.40;;;5.70;99.00;;;;;;4993964;28;20032;-82
2020/12/12 00:18:19;;;;;;;5.93;2.90;;;5.50;93.60;;;;;;4961355;28;20469;-82
2020/12/12 00:20:45;;;;;;;2.95;2.38;;;5.50;93.50;;;;;;4977826;28;20037;-81
2020/12/12 00:23:10;;;;;;;4.80;2.83;;;5.70;93.40;;;;;;4977858;28;20428;-83
2020/12/12 00:25:36;;;;;;;2.78;2.30;;;;;;;;;;4977673;28;20109;-84
2020/12/12 00:28:05;;;;;;;5.85;2.45;;;5.50;97.20;;;;;;4993783;28;20030;-81
2020/12/12 00:30:30;;;;;;;3.17;2.50;;;5.60;94.10;;;;;;4993380;28;20032;-82
2020/12/12 00:32:56;;;;;;;3.70;2.60;;;5.50;93.30;;;;;;4993523;28;20018;-83
2020/12/12 00:35:21;;;;;;;3.63;1.98;;;5.40;93.20;;;;;;4994671;28;20029;-82
2020/12/12 00:37:47;;;;;;;3.20;2.20;;;5.50;99.90;;;;;;4977277;28;20026;-82
2020/12/12 00:40:13;;;;;;;2.10;1.70;;;5.80;97.90;;;;;;4977448;28;20022;-81
2020/12/12 00:42:39;;;;;;;2.22;1.98;;;5.80;91.80;;;;;;4977526;28;20038;-82
2020/12/12 00:45:05;;;;;;;2.10;1.65;;;5.80;91.50;;;;;;4977209;28;20065;-81
2020/12/12 00:47:30;;;;;;;1.70;1.60;;;5.90;98.00;;;;;;4976567;28;20488;-82
2020/12/12 00:49:56;;;;;;;2.30;1.60;;;;;;;;;;4993478;28;20050;-82
2020/12/12 00:52:22;;;;;;;1.38;1.30;;;5.90;94.70;;;;;;4993298;28;20053;-81
2020/12/12 00:54:48;;;;;;;1.27;1.27;;;5.80;90.50;;;;;;4993282;28;20410;-83
2020/12/12 00:57:13;;;;;;;1.40;1.30;;;6.30;90.10;;;;;;4977055;28;20030;-81
2020/12/12 00:59:39;;;;;;;1.08;1.08;;;6.50;87.10;;;;;;4993080;28;20026;-82
2020/12/12 01:02:05;;;;;;;1.35;1.27;;;;;;;;;;4992985;28;20385;-84
2020/12/12 01:04:31;;;;;;;1.27;1.23;;;;;;;;;;5009502;28;20022;-83
2020/12/12 01:06:56;;;;;;;1.55;1.45;;;7.00;82.40;;;;;;5009346;28;20081;-83
2020/12/12 01:09:22;;;;;;;1.65;1.55;;;7.10;82.20;;;;;;5009526;28;20034;-81
2020/12/12 01:11:48;;;;;;;3.72;3.03;;;6.90;99.90;;;;;;4992595;28;20121;-82
2020/12/12 01:14:13;;;;;;;1.63;1.52;;;6.90;85.20;;;;;;4992056;28;20030;-82
2020/12/12 01:16:39;;;;;;;1.35;1.30;;;6.90;85.20;;;;;;5008985;28;20085;-83
2020/12/12 01:19:04;;;;;;;1.70;1.60;;;6.80;84.00;;;;;;5008973;28;20022;-82
2020/12/12 01:21:30;;;;;;;1.67;1.58;;;7.00;84.70;;;;;;5009349;28;20026;-82
2020/12/12 01:23:55;;;;;;;1.70;1.40;;;6.80;99.90;;;;;;4992759;28;20096;-82
2020/12/12 01:26:21;;;;;;;2.05;1.88;;;6.70;85.60;;;;;;4976450;28;20487;-83
2020/12/12 01:28:46;;;;;;;2.17;1.80;;;6.60;86.50;;;;;;4976620;28;20125;-82
2020/12/12 01:31:12;;;;;;;1.48;1.38;;;6.60;85.70;;;;;;4992532;28;20030;-82
2020/12/12 01:33:38;;;;;;;1.52;1.42;;;6.80;85.40;;;;;;4992887;28;20083;-82
2020/12/12 01:36:08;;;;;;;1.55;1.45;;;6.40;99.60;;;;;;4992739;28;20050;-84
2020/12/12 01:38:34;;;;;;;1.17;1.17;;;6.60;83.70;;;;;;4976458;28;20034;-82
2020/12/12 01:41:00;;;;;;;1.33;1.33;;;6.60;83.80;;;;;;4976198;28;20092;-82
2020/12/12 01:43:25;;;;;;;1.33;1.30;;;6.60;83.70;;;;;;4976119;28;20511;-84
2020/12/12 01:45:51;;;;;;;0.93;0.93;;;6.80;83.20;;;;;;5008499;28;20464;-83
2020/12/12 01:48:16;;;;;;;1.10;1.10;;;6.90;95.10;;;;;;5008332;28;20054;-85
2020/12/12 01:50:42;;;;;;;0.82;0.82;;;7.20;82.00;;;;;;4992359;28;20362;-84
2020/12/12 01:53:08;;;;;;;1.30;1.30;;;6.90;81.90;;;;;;5008665;28;20041;-81
2020/12/12 01:55:35;;;;;;;1.08;1.08;;;6.90;81.40;;;;;;4975928;28;20022;-82
2020/12/12 01:58:00;;;;;;;1.00;1.00;;;6.80;81.40;;;;;;4992056;28;20026;-82
2020/12/12 02:00:26;;;;;;;1.10;1.10;;;7.30;82.70;;;;;;5008882;28;20358;-82
2020/12/12 02:02:56;;;;;;;1.35;1.17;;;6.80;82.30;;;;;;5008393;28;20026;-82
2020/12/12 02:05:38;;;;;;;1.15;1.15;;;6.80;82.40;;;;;;4992130;28;20062;-82
2020/12/12 02:08:15;;;;;;;1.15;1.08;;;6.80;83.00;;;;;;4992334;28;20034;-82
2020/12/12 02:10:47;;;;;;;1.23;1.13;;;6.70;82.70;;;;;;5008162;28;20105;-82
2020/12/12 02:13:14;;;;;;;1.10;1.10;;;6.60;84.30;;;;;;4992072;28;20519;-82
2020/12/12 02:15:40;;;;;;;1.70;1.60;;;;;;;;;;4992217;28;20030;-84
2020/12/12 02:18:06;;;;;;;1.88;1.75;;;6.50;91.80;;;;;;4992135;28;20477;-82
2020/12/12 02:20:32;;;;;;;2.15;1.90;;;6.50;86.40;;;;;;4991785;28;20030;-83
2020/12/12 02:22:57;;;;;;;1.70;1.60;;;6.30;95.60;;;;;;4975666;28;20027;-82
2020/12/12 02:25:23;;;;;;;1.02;1.02;;;6.50;87.10;;;;;;5007646;28;20022;-82
2020/12/12 02:27:50;;;;;;;0.95;0.95;;;;;;;;;;5007822;28;20054;-81
2020/12/12 02:30:15;;;;;;;0.85;0.85;;;6.10;92.10;;;;;;4991862;28;20018;-81
2020/12/12 02:32:41;;;;;;;0.75;0.75;;;6.30;86.60;;;;;;5007958;28;20034;-82
2020/12/12 02:35:07;;;;;;;0.80;0.80;;;6.20;85.60;;;;;;5007991;28;20058;-82
2020/12/12 02:37:32;;;;;;;0.77;0.77;;;6.40;86.20;;;;;;5007978;28;20077;-81
2020/12/12 02:39:58;;;;;;;0.75;0.75;;;;;;;;;;4991668;28;20397;-83
2020/12/12 02:42:24;;;;;;;0.77;0.77;;;6.30;91.00;;;;;;5008138;28;20050;-82
2020/12/12 02:44:53;;;;;;;0.80;0.80;;;6.30;84.70;;;;;;4991777;28;20030;-83
2020/12/12 02:47:19;;;;;;;0.85;0.85;;;6.30;94.80;;;;;;4991367;28;20069;-81
2020/12/12 02:49:45;;;;;;;0.75;0.75;;;6.30;84.90;;;;;;4991423;28;20026;-83
2020/12/12 02:52:11;;;;;;;0.68;0.68;;;;;;;;;;4991854;28;20480;-82
2020/12/12 02:54:37;;;;;;;0.90;0.90;;;6.20;93.00;;;;;;5008145;28;20088;-81
2020/12/12 02:57:03;;;;;;;0.70;0.70;;;6.30;85.10;;;;;;4991584;28;20454;-83
2020/12/12 02:59:28;;;;;;;1.02;0.85;;;6.10;84.60;;;;;;5008248;28;20044;-82
2020/12/12 03:01:54;;;;;;;1.80;0.80;;;6.20;85.00;;;;;;5007930;28;20026;-81
2020/12/12 03:04:20;;;;;;;0.95;0.95;;;;;;;;;;4992629;28;20110;-81
2020/12/12 03:06:45;;;;;;;0.95;0.95;;;6.20;91.30;;;;;;4991210;28;20149;-81
2020/12/12 03:09:11;;;;;;;1.50;1.00;;;6.40;85.40;;;;;;4991400;28;20029;-81
2020/12/12 03:11:37;;;;;;;0.93;0.93;;;6.20;85.90;;;;;;4991668;28;20026;-81
2020/12/12 03:14:03;;;;;;;1.10;1.00;;;6.30;84.90;;;;;;4991602;28;20519;-81
2020/12/12 03:16:29;;;;;;;0.63;0.63;;;;;;;;;;5007757;28;20125;-82
2020/12/12 03:18:54;;;;;;;0.82;0.82;;;6.10;91.40;;;;;;5007578;28;20524;-81
2020/12/12 03:21:20;;;;;;;0.70;0.70;;;6.10;87.60;;;;;;5007524;28;20033;-81
2020/12/12 03:23:45;;;;;;;1.13;1.13;;;5.90;88.40;;;;;;4991233;28;20373;-81
2020/12/12 03:26:11;;;;;;;1.33;1.23;;;6.00;89.40;;;;;;5007580;28;20628;-81
2020/12/12 03:28:37;;;;;;;1.15;1.15;;;5.90;99.90;;;;;;4991143;28;20030;-81
2020/12/12 03:31:02;;;;;;;1.17;1.08;;;6.60;95.20;;;;;;4992901;28;20499;-81
2020/12/12 03:37:42;;;;;;;1.10;0.80;;;5.80;89.50;;;;;;4988657;28;20125;-81
2020/12/12 03:40:26;;;;;;;0.60;0.60;;;5.70;96.40;;;;;;4977594;28;20034;-82
2020/12/12 03:47:11;;;;;;;1.25;1.15;;;5.80;87.50;;;;;;4972252;28;20132;-80
2020/12/12 03:53:03;;;;;;;2.05;1.95;;;5.70;90.60;;;;;;4943021;28;20695;-83
2020/12/12 03:56:05;;;;;;;1.90;1.70;;;5.70;91.20;;;;;;4995796;28;20054;-81
2020/12/12 03:59:04;;;;;;;1.48;1.38;;;5.70;90.60;;;;;;4979134;28;20026;-81
2020/12/12 04:01:31;;;;;;;1.70;1.45;;;5.80;99.90;;;;;;4976603;28;20057;-81
2020/12/12 04:04:19;;;;;;;2.00;1.17;;;5.60;91.00;;;;;;4979577;28;20022;-81
2020/12/12 04:09:58;;;;;;;1.60;0.80;;;5.50;91.90;;;;;;4986747;28;20148;-81
2020/12/12 04:12:33;;;;;;;1.08;1.00;;;5.80;92.30;;;;;;4997771;28;20042;-81
2020/12/12 04:15:58;;;;;;;0.88;0.88;;;5.50;92.30;;;;;;4994496;28;20038;-81
2020/12/12 04:18:24;;;;;;;0.80;0.80;;;5.20;95.90;;;;;;4986143;28;20046;-83
2020/12/12 04:20:50;;;;;;;0.98;0.98;;;5.40;92.40;;;;;;4974401;28;20093;-81
2020/12/12 04:23:15;;;;;;;1.15;0.90;;;5.50;92.60;;;;;;4974684;28;20022;-82
2020/12/12 04:26:10;;;;;;;0.73;0.70;;;5.60;92.90;;;;;;4975967;28;20081;-81
2020/12/12 04:28:35;;;;;;;0.70;0.70;;;5.10;99.00;;;;;;4979716;28;20435;-81
2020/12/12 04:31:01;;;;;;;0.82;0.82;;;5.40;92.90;;;;;;4977551;28;20022;-81
2020/12/12 04:33:28;;;;;;;0.88;0.88;;;5.50;93.20;;;;;;4993645;28;20026;-81
2020/12/12 04:35:53;;;;;;;0.90;0.90;;;5.30;93.30;;;;;;4993626;28;20476;-82
2020/12/12 04:38:20;;;;;;;0.85;0.85;;;5.50;93.50;;;;;;4977421;28;20030;-82
2020/12/12 04:40:46;;;;;;;1.27;1.27;;;5.10;99.90;;;;;;4961719;28;20026;-83
2020/12/12 04:43:12;;;;;;;0.65;0.65;;;5.10;93.30;;;;;;4993796;28;20034;-83
2020/12/12 04:46:19;;;;;;;1.73;1.63;;;5.30;93.20;;;;;;4977696;28;20030;-81
2020/12/12 04:48:44;;;;;;;4.50;2.10;;;5.20;92.90;;;;;;4991946;28;20145;-83
2020/12/12 04:51:10;;;;;;;3.10;2.80;;;5.20;93.30;;;;;;4976986;28;20054;-81
2020/12/12 04:53:35;;;;;;;4.35;2.22;;;5.10;93.30;;;;;;4994483;28;20481;-81
2020/12/12 04:56:03;;;;;;;2.55;2.35;;;5.10;93.40;;;;;;4993480;28;20030;-82
2020/12/12 04:58:29;;;;;;;2.88;2.60;;;5.70;93.80;;;;;;4993139;28;20518;-81
2020/12/12 05:00:55;;;;;;;2.38;2.17;;;5.10;93.90;;;;;;4993302;28;20038;-82
2020/12/12 05:03:25;;;;;;;3.13;2.60;;;5.30;93.80;;;;;;4992900;28;20105;-82
2020/12/12 05:05:51;;;;;;;4.60;3.17;;;5.50;94.10;;;;;;4992823;28;20464;-81
2020/12/12 05:08:17;;;;;;;5.00;3.42;;;4.80;99.90;;;;;;4993123;28;20041;-81
2020/12/12 05:10:43;;;;;;;4.60;3.42;;;5.50;94.10;;;;;;4993152;28;20117;-83
2020/12/12 05:13:18;;;;;;;3.95;3.38;;;5.10;94.20;;;;;;4977309;28;20429;-81
2020/12/12 05:15:45;;;;;;;3.22;2.78;;;4.80;94.00;;;;;;4993065;28;20053;-82
2020/12/12 05:18:11;;;;;;;4.68;3.05;;;5.00;94.50;;;;;;4992804;28;20029;-82
2020/12/12 05:20:37;;;;;;;3.58;3.10;;;4.80;99.90;;;;;;4998329;28;20030;-81
2020/12/12 05:23:12;;;;;;;2.70;2.50;;;5.10;94.60;;;;;;4992803;28;20027;-81
2020/12/12 05:25:39;;;;;;;3.72;3.10;;;5.10;98.70;;;;;;4977289;28;20312;-81
2020/12/12 05:28:08;;;;;;;5.40;4.00;;;4.90;94.60;;;;;;4976532;28;20121;-81
2020/12/12 05:30:41;;;;;;;4.05;3.28;;;4.90;94.60;;;;;;4992550;28;20370;-81
2020/12/12 05:33:08;;;;;;;4.68;3.22;;;4.90;94.60;;;;;;4993042;28;20034;-81
2020/12/12 05:35:34;;;;;;;4.72;4.00;;;;;;;;;;4992693;28;20127;-82
2020/12/12 05:38:00;;;;;;;4.75;4.25;;;4.80;98.10;;;;;;4992896;28;20038;-82
2020/12/12 05:40:26;;;;;;;4.93;4.43;;;4.80;94.60;;;;;;4992593;28;20030;-81
2020/12/12 05:42:52;;;;;;;3.53;3.03;;;5.30;94.90;;;;;;4992798;28;20389;-81
2020/12/12 05:45:17;;;;;;;3.83;3.00;;;4.90;94.90;;;;;;4992713;28;20041;-82
2020/12/12 05:47:43;;;;;;;2.85;2.55;;;4.70;99.90;;;;;;4992183;28;20092;-82
2020/12/12 05:50:08;;;;;;;3.80;3.10;;;5.10;99.90;;;;;;4992653;28;20030;-80
2020/12/12 05:52:35;;;;;;;3.10;2.58;;;4.90;94.80;;;;;;4992714;28;20057;-81
2020/12/12 05:55:01;;;;;;;1.92;1.80;;;5.00;95.00;;;;;;4976408;28;20029;-82
2020/12/12 05:57:27;;;;;;;2.42;2.22;;;4.90;95.20;;;;;;4976444;28;20145;-80
2020/12/12 05:59:56;;;;;;;8.05;4.15;;;4.90;99.70;;;;;;4975652;28;20454;-81
2020/12/12 06:02:24;;;;;;;2.08;1.90;;;4.90;99.30;;;;;;4992791;28;20483;-80
2020/12/12 06:04:51;;;;;;;4.57;4.18;;;5.00;95.40;;;;;;4992424;28;20408;-80
2020/12/12 06:07:27;;;;;;;4.38;3.97;;;4.90;95.60;;;;;;4992372;28;20065;-80
2020/12/12 06:09:56;;;;;;;2.90;2.70;;;5.20;95.40;;;;;;4975994;28;20034;-82
2020/12/12 06:12:22;;;;;;;1.88;1.77;;;4.90;99.90;;;;;;4992110;28;20376;-80
2020/12/12 06:14:47;;;;;;;3.05;1.90;;;5.10;99.90;;;;;;4976359;28;20121;-81
2020/12/12 06:17:13;;;;;;;1.90;1.77;;;5.00;95.50;;;;;;4992170;28;20381;-78
2020/12/12 06:19:39;;;;;;;3.60;2.10;;;4.90;95.50;;;;;;4990519;28;20113;-80
2020/12/12 06:22:04;;;;;;;4.00;3.40;;;4.90;99.90;;;;;;4991121;28;20525;-82
2020/12/12 06:24:32;;;;;;;12.40;8.23;;;5.00;95.40;;;;;;4992370;28;20515;-81
2020/12/12 06:27:08;;;;;;;7.50;6.13;;;4.80;95.40;;;;;;4975679;28;20034;-82
2020/12/12 06:29:42;;;;;;;5.05;2.50;;;4.80;95.20;;;;;;4975471;28;20030;-81
2020/12/12 06:32:14;;;;;;;3.05;2.70;;;4.90;95.50;;;;;;4992300;28;20022;-79
2020/12/12 06:34:40;;;;;;;;;;;5.00;95.80;;;;;;4992326;28;20101;-79
2020/12/12 06:37:06;;;;;;;2.47;1.55;;;;;;;;;;4991802;28;19909;-83
2020/12/12 06:39:35;;;;;;;1.33;1.23;;;4.90;99.40;;;;;;4992960;28;20022;-83
2020/12/12 06:42:01;;;;;;;2.20;1.92;;;5.20;95.70;;;;;;4991858;28;20035;-80
2020/12/12 06:44:34;;;;;;;5.82;4.10;;;5.10;95.80;;;;;;4992062;28;20027;-81
2020/12/12 06:47:00;;;;;;;2.35;2.15;;;;;;;;;;4991977;28;20057;-81
2020/12/12 06:49:26;;;;;;;7.35;3.90;;;5.00;99.00;;;;;;4991819;28;20050;-82
2020/12/12 06:51:51;;;;;;;7.18;5.40;;;5.20;95.60;;;;;;4991380;28;20041;-79
2020/12/12 06:54:18;;;;;;;4.55;3.85;;;4.90;99.90;;;;;;4975674;28;20030;-78
2020/12/12 06:56:46;;;;;;;2.45;2.25;;;5.40;99.90;;;;;;4991884;28;20022;-78
2020/12/12 06:59:30;;;;;;;3.05;2.83;;;5.50;95.50;;;;;;4991907;28;20022;-79
2020/12/12 07:02:02;;;;;;;4.30;3.55;;;5.00;95.30;;;;;;4991955;28;20456;-78
2020/12/12 07:04:34;;;;;;;3.03;2.50;;;4.90;95.10;;;;;;4993038;28;20026;-78
2020/12/12 07:07:07;;;;;;;3.45;2.58;;;5.10;99.90;;;;;;4991388;28;20042;-77
2020/12/12 07:09:37;;;;;;;3.63;3.15;;;5.00;94.90;;;;;;4991811;28;20065;-77
2020/12/12 07:12:03;;;;;;;3.97;3.53;;;5.10;94.90;;;;;;4995572;28;20054;-77
2020/12/12 07:14:29;;;;;;;4.25;2.83;;;4.90;95.10;;;;;;4996779;28;20034;-78
2020/12/12 07:16:56;;;;;;;3.33;3.03;;;5.20;95.20;;;;;;4995260;28;20076;-78
2020/12/12 07:19:48;;;;;;;3.53;3.00;;;5.00;99.90;;;;;;4996591;28;20029;-78
2020/12/12 07:22:14;;;;;;;4.65;3.45;;;5.10;95.30;;;;;;4993169;28;20092;-80
2020/12/12 07:24:39;;;;;;;3.30;3.00;;;5.00;95.50;;;;;;4995366;28;20105;-79
2020/12/12 07:27:05;;;;;;;3.55;3.03;;;4.90;99.90;;;;;;4994999;28;20500;-81
2020/12/12 07:29:31;;;;;;;5.05;3.75;;;5.40;95.20;;;;;;4978656;28;20030;-80
2020/12/12 07:31:57;;;;;;;4.38;3.20;;;4.90;99.90;;;;;;4978936;28;20053;-79
2020/12/12 07:34:23;;;;;;;3.60;3.25;;;4.90;95.00;;;;;;4995237;28;20034;-79
2020/12/12 07:37:00;;;;;;;4.88;3.00;;;5.30;95.40;;;;;;4978986;28;20045;-81
2020/12/12 07:39:27;;;;;;;5.32;3.63;;;4.80;99.90;;;;;;4994953;28;20026;-79
2020/12/12 07:41:54;;;;;;;13.65;9.95;;;5.10;95.30;;;;;;4995903;28;20460;-79
2020/12/12 07:44:20;;;;;;;5.07;4.03;;;5.00;99.90;;;;;;4994598;28;20054;-78
2020/12/12 07:46:53;;;;;;;3.60;3.10;;;4.90;95.30;;;;;;4994307;28;20041;-79
2020/12/12 07:49:19;;;;;;;5.10;3.35;;;4.90;95.30;;;;;;4994576;28;20061;-79
2020/12/12 07:51:44;;;;;;;5.88;4.80;;;4.90;95.70;;;;;;4994886;28;20030;-80
2020/12/12 07:54:18;;;;;;;5.47;4.57;;;5.10;95.40;;;;;;4994619;28;20034;-80
2020/12/12 07:56:49;;;;;;;10.82;5.40;;;5.10;99.90;;;;;;4994547;28;20105;-79
2020/12/12 07:59:19;;;;;;;5.32;4.45;;;4.90;99.90;;;;;;4978306;28;20070;-79
2020/12/12 08:01:45;;;;;;;5.25;4.65;;;5.70;99.90;;;;;;4994574;28;20022;-80
2020/12/12 08:04:21;;;;;;;5.50;3.10;;;5.20;95.40;;;;;;4994498;28;20027;-79
2020/12/12 08:06:47;;;;;;;3.47;3.17;;;5.20;95.40;;;;;;4994499;28;20050;-80
2020/12/12 08:09:16;;;;;;;3.63;3.20;;;5.40;95.60;;;;;;4994429;28;20129;-79
2020/12/12 08:11:42;;;;;;;3.63;3.33;;;5.10;99.90;;;;;;4994477;28;20026;-78
2020/12/12 08:14:07;;;;;;;4.95;4.45;;;5.30;99.90;;;;;;4994232;28;20031;-80
2020/12/12 08:16:43;;;;;;;4.20;3.47;;;5.30;95.70;;;;;;4995568;28;20065;-80
2020/12/12 08:19:09;;;;;;;3.60;3.00;;;5.40;95.90;;;;;;4994529;28;20033;-77
2020/12/12 08:21:36;;;;;;;3.78;2.65;;;5.40;96.00;;;;;;4993481;28;20038;-80
2020/12/12 08:24:04;;;;;;;9.10;3.80;;;5.70;99.90;;;;;;4995416;28;20057;-78
2020/12/12 08:26:30;;;;;;;4.68;3.40;;;5.60;96.30;;;;;;4995387;28;20030;-77
2020/12/12 08:28:59;;;;;;;5.57;4.47;;;5.70;95.90;;;;;;4993914;28;20362;-77
2020/12/12 08:31:25;;;;;;;6.97;6.18;;;5.80;95.50;;;;;;4993986;28;20121;-77
2020/12/12 08:33:55;;;;;;;6.88;6.18;;;5.70;95.40;;;;;;4995057;28;20109;-79
2020/12/12 08:36:28;;;;;;;4.88;4.38;;;6.20;99.90;;;;;;4977933;28;20022;-78
2020/12/12 08:38:54;;;;;;;;;;;5.60;99.90;;;;;;4995728;28;20424;-77
2020/12/12 08:41:20;;;;;;;4.68;3.75;;;5.90;95.20;;;;;;4995126;28;20369;-79
2020/12/12 08:43:45;;;;;;;4.70;4.20;;;5.80;95.10;;;;;;4993664;28;20102;-79
2020/12/12 08:46:15;;;;;;;4.32;3.92;;;5.90;99.90;;;;;;4993513;28;20041;-79
2020/12/12 08:48:41;;;;;;;7.28;3.85;;;5.90;95.20;;;;;;4994823;28;20054;-79
2020/12/12 08:51:07;;;;;;;3.95;3.30;;;6.20;94.60;;;;;;4993850;28;20110;-79
2020/12/12 08:53:37;;;;;;;3.75;3.30;;;6.10;94.80;;;;;;4993780;28;20031;-79
2020/12/12 08:56:13;;;;;;;4.53;3.08;;;6.30;94.70;;;;;;4994752;28;20041;-80
2020/12/12 08:58:44;;;;;;;3.88;3.20;;;6.90;99.90;;;;;;4993562;28;20560;-79
2020/12/12 09:01:23;;;;;;;7.95;3.28;;;6.50;93.90;;;;;;4992884;28;20037;-81
2020/12/12 09:03:54;;;;;;;6.05;3.45;;;6.70;99.90;;;;;;4993978;28;20034;-79
2020/12/12 09:06:20;;;;;;;3.70;3.37;;;6.90;92.60;;;;;;4997967;28;20053;-79
2020/12/12 09:08:46;;;;;;;4.32;3.70;;;7.00;92.70;;;;;;4991150;28;20018;-78
2020/12/12 09:11:16;;;;;;;4.88;4.10;;;7.00;93.10;;;;;;4992297;28;20046;-80
2020/12/12 09:13:41;;;;;;;6.07;4.03;;;7.00;99.90;;;;;;4972493;28;20034;-81
2020/12/12 09:16:08;;;;;;;11.35;7.35;;;7.60;98.50;;;;;;4974335;28;20023;-79
2020/12/12 09:18:46;;;;;;;21.08;11.73;;;7.20;93.10;;;;;;5000132;28;20112;-79
2020/12/12 09:21:12;;;;;;;23.30;13.27;;;7.20;92.90;;;;;;5012100;28;20483;-79
2020/12/12 09:23:38;;;;;;;5.25;4.13;;;7.50;93.30;;;;;;5013098;28;20025;-79
2020/12/12 09:26:04;;;;;;;6.75;4.53;;;;;;;;;;5004551;28;20388;-79
2020/12/12 09:28:30;;;;;;;6.68;4.53;;;7.10;95.60;;;;;;4993454;28;20026;-78
2020/12/12 09:30:55;;;;;;;5.75;3.85;;;7.40;92.80;;;;;;4992028;28;20049;-79
2020/12/12 09:33:21;;;;;;;5.05;2.63;;;7.90;92.50;;;;;;4993725;28;20034;-79
2020/12/12 09:35:47;;;;;;;4.18;2.83;;;7.40;91.70;;;;;;4993462;28;20096;-79
2020/12/12 09:38:13;;;;;;;6.47;2.88;;;7.20;99.90;;;;;;4992568;28;20101;-80
2020/12/12 09:40:38;;;;;;;5.72;3.28;;;7.50;96.20;;;;;;4976830;28;20134;-79
2020/12/12 09:43:04;;;;;;;4.30;3.90;;;7.40;92.00;;;;;;4991574;28;20377;-79
2020/12/12 09:45:29;;;;;;;6.45;4.35;;;7.90;99.90;;;;;;4991909;28;20022;-79
2020/12/12 09:48:17;;;;;;;4.47;3.38;;;7.40;92.30;;;;;;4991685;28;20548;-79
2020/12/12 09:50:43;;;;;;;2.88;2.40;;;;;;;;;;4991975;28;20049;-80
2020/12/12 09:53:09;;;;;;;2.95;1.92;;;7.50;91.60;;;;;;4991448;28;20080;-79
2020/12/12 09:55:36;;;;;;;2.08;1.90;;;7.50;91.30;;;;;;5006154;28;20030;-80
2020/12/12 09:58:04;;;;;;;2.65;1.83;;;7.60;91.10;;;;;;5011569;28;20030;-80
2020/12/12 10:00:30;;;;;;;2.15;1.75;;;7.50;96.50;;;;;;4997926;28;20022;-79
2020/12/12 10:02:56;;;;;;;2.88;2.20;;;7.70;90.80;;;;;;4974916;28;20385;-79
2020/12/12 10:05:21;;;;;;;3.67;1.38;;;7.70;90.80;;;;;;4991970;28;20026;-79
2020/12/12 10:07:47;;;;;;;1.65;1.55;;;7.90;90.40;;;;;;4992858;28;20046;-79
2020/12/12 10:10:12;;;;;;;2.72;1.63;;;7.60;90.50;;;;;;4991063;28;20540;-80
2020/12/12 10:16:01;;;;;;;3.40;3.10;;;7.70;90.70;;;;;;4987494;28;20046;-81
2020/12/12 10:18:27;;;;;;;5.60;2.22;;;7.70;90.90;;;;;;4991988;28;20350;-78
2020/12/12 10:20:53;;;;;;;2.90;1.95;;;7.70;91.20;;;;;;4991955;28;20109;-80
2020/12/12 10:23:19;;;;;;;2.80;2.38;;;7.90;99.90;;;;;;4991960;28;20461;-82
2020/12/12 10:25:44;;;;;;;2.85;1.90;;;7.70;91.20;;;;;;4976068;28;20027;-82
2020/12/12 10:28:10;;;;;;;1.65;1.55;;;7.70;90.90;;;;;;4992196;28;20396;-83
2020/12/12 10:30:36;;;;;;;1.20;1.00;;;7.80;90.00;;;;;;4993428;28;20080;-81
2020/12/12 10:33:01;;;;;;;1.30;1.17;;;7.80;89.40;;;;;;4991915;28;20031;-82
2020/12/12 10:35:28;;;;;;;11.68;10.88;;;7.80;99.90;;;;;;4992017;28;20449;-80
2020/12/12 10:37:55;;;;;;;9.63;8.70;;;7.80;90.20;;;;;;4974166;28;20057;-80
2020/12/12 10:40:26;;;;;;;5.55;4.82;;;7.90;90.20;;;;;;4959154;28;20468;-82
2020/12/12 10:42:51;;;;;;;4.13;2.88;;;7.80;96.90;;;;;;4976431;28;20023;-80
2020/12/12 10:46:02;;;;;;;;;;;;;;;;;;;;;
2020/12/12 10:48:28;;;;;;;9.25;4.25;;;8.00;95.00;;;;;;4994806;28;20408;-83
2020/12/12 10:50:53;;;;;;;7.75;4.43;;;8.00;97.20;;;;;;4979725;28;20097;-82
2020/12/12 10:53:19;;;;;;;7.55;4.13;;;8.30;95.50;;;;;;4995768;28;20030;-81
2020/12/12 10:55:45;;;;;;;7.63;4.53;;;;;;;;;;4995573;28;20026;-83
2020/12/12 10:58:11;;;;;;;4.63;3.25;;;8.30;87.60;;;;;;4972881;28;20178;-83
2020/12/12 11:00:45;;;;;;;3.75;2.30;;;8.50;89.70;;;;;;4979440;28;20031;-83
2020/12/12 11:03:11;;;;;;;13.02;6.20;;;;;;;;;;4966121;28;20058;-83
2020/12/12 11:05:37;;;;;;;4.45;2.78;;;9.20;91.70;;;;;;4979284;28;20065;-78
2020/12/12 11:08:03;;;;;;;5.57;3.08;;;9.30;85.70;;;;;;4979240;28;20038;-78
2020/12/12 11:10:28;;;;;;;7.82;2.88;;;9.60;83.10;;;;;;4995511;28;20078;-80
2020/12/12 11:12:54;;;;;;;4.95;2.13;;;9.80;85.40;;;;;;4995568;28;20376;-80
2020/12/12 11:15:20;;;;;;;2.28;1.63;;;10.00;98.00;;;;;;4996279;28;20061;-79
2020/12/12 11:17:45;;;;;;;5.45;2.72;;;10.20;90.60;;;;;;4979223;28;20068;-80
2020/12/12 11:20:15;;;;;;;10.95;2.08;;;10.50;81.50;;;;;;4979162;28;20117;-79
2020/12/12 11:22:40;;;;;;;2.72;1.98;;;11.00;81.30;;;;;;4979385;28;20022;-79
2020/12/12 11:25:06;;;;;;;8.68;2.50;;;11.50;77.80;;;;;;4995243;28;20026;-82
2020/12/12 11:27:32;;;;;;;10.75;5.53;;;12.30;94.00;;;;;;4978739;28;20045;-80
2020/12/12 11:29:58;;;;;;;21.73;11.27;;;12.60;82.60;;;;;;4996218;28;20484;-80
2020/12/12 11:32:23;;;;;;;10.43;4.38;;;13.10;76.60;;;;;;4994986;28;20485;-77
2020/12/12 11:34:57;;;;;;;8.35;3.40;;;13.50;72.70;;;;;;4996315;28;20525;-77
2020/12/12 11:43:26;;;;;;;5.90;1.73;;;13.40;74.90;;;;;;4962740;28;20042;-76
2020/12/12 11:48:00;;;;;;;2.75;1.70;;;12.60;69.40;;;;;;4995584;28;20085;-77
2020/12/12 11:50:29;;;;;;;1.70;1.60;;;12.60;69.70;;;;;;4996375;28;20477;-77
2020/12/12 11:52:56;;;;;;;1.40;1.30;;;12.30;71.30;;;;;;4963151;28;20033;-78
2020/12/12 11:55:22;;;;;;;1.00;1.00;;;12.00;71.00;;;;;;4978373;28;20029;-79
2020/12/12 11:57:48;;;;;;;1.40;1.30;;;11.70;71.50;;;;;;4993541;28;20030;-81
2020/12/12 12:00:13;;;;;;;1.08;1.08;;;11.40;73.80;;;;;;4978128;28;20081;-81
2020/12/12 12:02:40;;;;;;;1.67;1.40;;;11.30;83.60;;;;;;4995605;28;20418;-81
2020/12/12 12:05:06;;;;;;;0.80;0.80;;;11.60;84.50;;;;;;4978221;28;20034;-81
2020/12/12 12:07:35;;;;;;;1.30;1.20;;;11.10;74.70;;;;;;4977702;28;20039;-86
2020/12/12 12:13:02;;;;;;;1.20;1.20;;;11.00;74.50;;;;;;4981340;28;20477;-79
2020/12/12 12:15:28;;;;;;;2.40;1.90;;;;;;;;;;4992506;28;20129;-81
2020/12/12 12:17:54;;;;;;;1.70;1.58;;;10.80;75.80;;;;;;4994556;28;20030;-79
2020/12/12 12:20:23;;;;;;;1.35;1.27;;;10.70;87.00;;;;;;4977962;28;20070;-79
2020/12/12 12:22:49;;;;;;;1.58;1.48;;;10.60;74.90;;;;;;4992715;28;20065;-78
2020/12/12 12:25:15;;;;;;;1.50;1.40;;;10.40;77.30;;;;;;4992114;28;20030;-80
2020/12/12 12:27:41;;;;;;;1.30;1.20;;;10.40;90.50;;;;;;4976383;28;20117;-81
2020/12/12 12:30:07;;;;;;;1.55;1.45;;;;;;;;;;4992635;28;20030;-80
2020/12/12 12:32:33;;;;;;;6.28;2.90;;;10.30;86.10;;;;;;4993085;28;20029;-79
2020/12/12 12:34:58;;;;;;;1.95;1.85;;;10.30;79.50;;;;;;4994105;28;20484;-79
2020/12/12 12:37:24;;;;;;;4.00;2.60;;;10.20;76.00;;;;;;4995111;28;20381;-80
2020/12/12 12:39:49;;;;;;;1.90;1.80;;;10.00;95.40;;;;;;4994153;28;20389;-79
2020/12/12 12:42:15;;;;;;;2.30;2.10;;;10.10;75.70;;;;;;4977357;28;20092;-79
2020/12/12 12:44:42;;;;;;;1.40;1.30;;;10.10;76.60;;;;;;4994818;28;20041;-80
2020/12/12 12:47:08;;;;;;;1.50;1.40;;;10.00;78.20;;;;;;4994797;28;20027;-81
2020/12/12 12:49:33;;;;;;;1.75;1.65;;;9.90;92.10;;;;;;4977491;28;20069;-84
2020/12/12 12:51:59;;;;;;;1.40;1.30;;;10.30;97.50;;;;;;4977372;28;20062;-81
2020/12/12 12:54:25;;;;;;;2.53;2.33;;;9.90;79.90;;;;;;4993495;28;20038;-81
2020/12/12 12:56:50;;;;;;;8.60;6.07;;;9.90;80.40;;;;;;4977375;28;20034;-81
2020/12/12 12:59:16;;;;;;;2.65;2.42;;;9.90;78.30;;;;;;4993704;28;20019;-83
2020/12/12 13:01:41;;;;;;;1.70;1.60;;;9.80;79.30;;;;;;4994767;28;20377;-79
2020/12/12 13:04:07;;;;;;;2.40;2.20;;;9.80;97.20;;;;;;4993619;28;20109;-77
2020/12/12 13:06:34;;;;;;;2.40;2.00;;;9.80;79.70;;;;;;4992933;28;20034;-79
2020/12/12 13:08:59;;;;;;;1.67;1.58;;;9.70;79.50;;;;;;4990534;28;20492;-80
2020/12/12 13:11:25;;;;;;;2.67;2.05;;;9.70;92.10;;;;;;4977051;28;20069;-83
2020/12/12 13:13:51;;;;;;;1.30;1.20;;;9.60;80.50;;;;;;4976521;28;20076;-85
2020/12/12 13:16:19;;;;;;;3.10;2.80;;;;;;;;;;4976928;28;20026;-87
2020/12/12 13:18:51;;;;;;;1.70;1.60;;;9.70;89.50;;;;;;4992915;28;20019;-82
2020/12/12 13:21:43;;;;;;;1.85;1.75;;;9.60;80.70;;;;;;4977973;28;20030;-84
2020/12/12 13:24:03;;;;;;;5.63;4.30;;;9.50;80.50;;;;;;4993259;28;20034;-86
2020/12/12 13:26:29;;;;;;;2.00;1.90;;;;;;;;;;4976764;28;20550;-87
2020/12/12 13:31:42;;;;;;;2.40;2.20;;;;;;;;;;4993042;28;20048;-86
2020/12/12 13:34:08;;;;;;;4.30;3.90;;;9.50;89.90;;;;;;4992805;28;20022;-85
2020/12/12 13:36:33;;;;;;;4.40;3.38;;;9.30;82.00;;;;;;4992982;28;20503;-87
2020/12/12 13:38:59;;;;;;;2.47;2.13;;;9.30;82.90;;;;;;4976724;28;20034;-83